Time;durP1;ratioP1;P1;durP2;ratioP2;P2;SDS_P1;SDS_P2;PMS_P1;PMS_P2;Temp;Humidity;BMP_temperature;BMP_pressure;BME280_temperature;BME280_humidity;BME280_pressure;Samples;Min_cycle;Max_cycle;Signal;HPM_P1;HPM_P2
2023/01/26 00:02:13;;;;;;;18.97;10.33;;;;;;;;;;5096504;28;20462;-71
2023/01/26 00:04:41;;;;;;;16.53;11.07;;;;;;;;;;5087999;28;20918;-70
2023/01/26 00:07:09;;;;;;;19.17;10.73;;;;;;;;;;5096380;28;20805;-70
2023/01/26 00:09:37;;;;;;;19.67;11.23;;;;;;;;;;5099023;28;20455;-70
2023/01/26 00:12:05;;;;;;;20.73;12.27;;;;;;;;;;5098528;28;20455;-71
2023/01/26 00:14:48;;;;;;;19.43;11.47;;;;;;;;;;5099611;28;20464;-70
2023/01/26 00:17:24;;;;;;;16.47;10.67;;;;;;;;;;5098594;28;20496;-70
2023/01/26 00:19:54;;;;;;;20.70;12.50;;;;;;;;;;5098095;28;20485;-71
2023/01/26 00:22:22;;;;;;;18.20;10.77;;;;;;;;;;5089288;28;20451;-71
2023/01/26 00:24:50;;;;;;;20.47;11.30;;;;;;;;;;5086841;28;20484;-71
2023/01/26 00:27:18;;;;;;;17.80;10.47;;;;;;;;;;5098533;28;20447;-70
2023/01/26 00:29:46;;;;;;;22.77;12.60;;;;;;;;;;5098443;28;20459;-70
2023/01/26 00:32:14;;;;;;;22.30;11.63;;;;;;;;;;5098419;28;20484;-70
2023/01/26 00:34:43;;;;;;;18.40;11.43;;;;;;;;;;5098931;28;20476;-70
2023/01/26 00:37:11;;;;;;;20.80;11.17;;;;;;;;;;5098329;28;20519;-70
2023/01/26 00:39:39;;;;;;;22.83;12.17;;;;;;;;;;5095373;28;20490;-70
2023/01/26 00:42:08;;;;;;;20.07;11.40;;;;;;;;;;5094936;28;20451;-70
2023/01/26 00:44:38;;;;;;;20.50;12.23;;;;;;;;;;5098647;28;20801;-70
2023/01/26 00:47:07;;;;;;;23.83;12.07;;;;;;;;;;5097797;28;20448;-71
2023/01/26 00:49:35;;;;;;;20.27;11.77;;;;;;;;;;5099057;28;20523;-70
2023/01/26 00:52:04;;;;;;;17.13;10.63;;;;;;;;;;5092141;28;20456;-70
2023/01/26 00:54:32;;;;;;;19.10;11.10;;;;;;;;;;5084160;28;20482;-70
2023/01/26 00:57:00;;;;;;;20.40;11.83;;;;;;;;;;5091413;28;20453;-70
2023/01/26 00:59:31;;;;;;;20.37;11.30;;;;;;;;;;5098809;28;20479;-70
2023/01/26 01:02:00;;;;;;;17.93;10.60;;;;;;;;;;5087092;28;20457;-71
2023/01/26 01:04:28;;;;;;;17.50;11.03;;;;;;;;;;5097613;28;20532;-70
2023/01/26 01:06:56;;;;;;;19.90;10.80;;;;;;;;;;5093916;28;20479;-70
2023/01/26 01:09:26;;;;;;;16.33;10.30;;;;;;;;;;5083637;28;20831;-70
2023/01/26 01:11:54;;;;;;;14.23;10.03;;;;;;;;;;5085628;28;20470;-70
2023/01/26 01:14:22;;;;;;;20.03;11.23;;;;;;;;;;5092453;28;21051;-70
2023/01/26 01:16:50;;;;;;;13.70;9.50;;;;;;;;;;5093760;28;20456;-70
2023/01/26 01:19:18;;;;;;;21.43;10.93;;;;;;;;;;5092921;28;20521;-71
2023/01/26 01:21:46;;;;;;;17.10;10.37;;;;;;;;;;5097265;28;20456;-70
2023/01/26 01:24:14;;;;;;;20.90;10.50;;;;;;;;;;5092449;28;20836;-70
2023/01/26 01:26:44;;;;;;;17.03;10.67;;;;;;;;;;5096334;28;20518;-70
2023/01/26 01:29:12;;;;;;;16.27;9.53;;;;;;;;;;5097926;28;20440;-70
2023/01/26 01:31:42;;;;;;;15.30;9.43;;;;;;;;;;5097900;28;20497;-71
2023/01/26 01:34:10;;;;;;;20.30;10.70;;;;;;;;;;5097510;28;20570;-71
2023/01/26 01:36:38;;;;;;;16.07;9.63;;;;;;;;;;5096920;28;20798;-71
2023/01/26 01:39:06;;;;;;;18.17;10.20;;;;;;;;;;5097869;28;20532;-70
2023/01/26 01:41:34;;;;;;;15.53;9.53;;;;;;;;;;5096633;28;20521;-70
2023/01/26 01:44:17;;;;;;;16.90;10.63;;;;;;;;;;5097277;28;20475;-70
2023/01/26 01:46:55;;;;;;;16.37;9.17;;;;;;;;;;5096783;28;20532;-70
2023/01/26 01:49:26;;;;;;;14.33;9.43;;;;;;;;;;5095506;28;20821;-70
2023/01/26 01:51:57;;;;;;;15.57;9.57;;;;;;;;;;5089051;28;20452;-70
2023/01/26 01:54:29;;;;;;;16.27;10.03;;;;;;;;;;5095171;28;20847;-71
2023/01/26 01:56:58;;;;;;;16.13;9.90;;;;;;;;;;5086108;28;20970;-70
2023/01/26 01:59:28;;;;;;;14.27;8.67;;;;;;;;;;5097928;28;20482;-70
2023/01/26 02:01:56;;;;;;;19.30;9.97;;;;;;;;;;5096891;28;20534;-70
2023/01/26 02:04:26;;;;;;;17.93;9.60;;;;;;;;;;5097790;28;20470;-70
2023/01/26 02:06:56;;;;;;;14.70;9.57;;;;;;;;;;5096826;28;20479;-70
2023/01/26 02:12:13;;;;;;;17.83;9.47;;;;;;;;;;5087307;28;20484;-71
2023/01/26 02:14:42;;;;;;;17.83;10.00;;;;;;;;;;5090925;28;20466;-69
2023/01/26 02:17:10;;;;;;;15.43;9.77;;;;;;;;;;5094763;28;20447;-72
2023/01/26 02:19:44;;;;;;;14.53;9.63;;;;;;;;;;5097646;28;20454;-71
2023/01/26 02:22:20;;;;;;;17.20;9.90;;;;;;;;;;5095069;28;20459;-71
2023/01/26 02:24:49;;;;;;;17.67;10.40;;;;;;;;;;5091701;28;20463;-71
2023/01/26 02:27:18;;;;;;;18.50;9.63;;;;;;;;;;5090464;28;20507;-71
2023/01/26 02:29:46;;;;;;;18.93;10.00;;;;;;;;;;5093783;28;21005;-69
2023/01/26 02:32:14;;;;;;;17.67;9.67;;;;;;;;;;5098788;28;20479;-72
2023/01/26 02:34:43;;;;;;;16.93;9.77;;;;;;;;;;5093605;28;20516;-71
2023/01/26 02:37:14;;;;;;;17.03;9.77;;;;;;;;;;5100819;28;20479;-71
2023/01/26 02:39:46;;;;;;;16.63;9.83;;;;;;;;;;5101360;28;20447;-71
2023/01/26 02:45:01;;;;;;;19.03;10.60;;;;;;;;;;5101205;28;20443;-68
2023/01/26 02:47:29;;;;;;;20.73;11.57;;;;;;;;;;5088548;28;20484;-71
2023/01/26 02:49:57;;;;;;;17.93;9.97;;;;;;;;;;5100578;28;20443;-72
2023/01/26 02:52:26;;;;;;;20.77;10.47;;;;;;;;;;5100950;28;20454;-70
2023/01/26 02:57:40;;;;;;;15.97;9.83;;;;;;;;;;5101256;28;20454;-69
2023/01/26 03:00:10;;;;;;;17.53;9.70;;;;;;;;;;5101218;28;20443;-69
2023/01/26 03:02:39;;;;;;;17.90;10.70;;;;;;;;;;5100882;28;21085;-69
2023/01/26 03:05:07;;;;;;;16.93;9.93;;;;;;;;;;5101162;28;20443;-69
2023/01/26 03:07:36;;;;;;;16.37;10.53;;;;;;;;;;5100829;28;20479;-69
2023/01/26 03:10:04;;;;;;;22.33;11.20;;;;;;;;;;5100546;28;20466;-69
2023/01/26 03:12:32;;;;;;;23.80;10.60;;;;;;;;;;5100710;28;20443;-69
2023/01/26 03:17:47;;;;;;;19.30;10.17;;;;;;;;;;5100545;28;20435;-69
2023/01/26 03:28:31;;;;;;;15.63;10.07;;;;;;;;;;5100409;28;20818;-70
2023/01/26 03:30:59;;;;;;;19.17;10.70;;;;;;;;;;5100551;28;20443;-69
2023/01/26 03:33:29;;;;;;;20.53;10.33;;;;;;;;;;5100255;28;20520;-69
2023/01/26 03:35:57;;;;;;;21.37;10.70;;;;;;;;;;5099730;28;20475;-69
2023/01/26 03:38:25;;;;;;;20.83;10.07;;;;;;;;;;5099612;28;20436;-69
2023/01/26 03:57:32;;;;;;;16.13;9.60;;;;;;;;;;5099876;28;20859;-69
2023/01/26 04:00:00;;;;;;;16.47;10.27;;;;;;;;;;5099980;28;20486;-70
2023/01/26 04:10:47;;;;;;;19.00;10.47;;;;;;;;;;5099607;28;20475;-70
2023/01/26 04:21:34;;;;;;;18.77;10.07;;;;;;;;;;5096221;28;20489;-69
2023/01/26 04:24:08;;;;;;;15.73;9.47;;;;;;;;;;5099348;28;20463;-70
2023/01/26 04:26:37;;;;;;;20.33;10.87;;;;;;;;;;5098975;28;20497;-69
2023/01/26 04:29:05;;;;;;;21.20;10.87;;;;;;;;;;5099632;28;20440;-70
2023/01/26 04:31:33;;;;;;;22.90;10.83;;;;;;;;;;5099433;28;20511;-70
2023/01/26 04:34:02;;;;;;;20.47;10.70;;;;;;;;;;5099063;28;20853;-69
2023/01/26 04:36:31;;;;;;;20.63;11.03;;;;;;;;;;5099105;28;20969;-69
2023/01/26 04:39:00;;;;;;;17.07;10.07;;;;;;;;;;5099196;28;20451;-70
2023/01/26 04:41:29;;;;;;;21.40;11.23;;;;;;;;;;5085563;28;20446;-70
2023/01/26 04:43:57;;;;;;;21.13;10.33;;;;;;;;;;5098838;28;20463;-70
2023/01/26 04:46:25;;;;;;;17.30;9.73;;;;;;;;;;5099371;28;20560;-70
2023/01/26 04:48:53;;;;;;;17.27;9.73;;;;;;;;;;5093729;28;20479;-69
2023/01/26 04:51:21;;;;;;;18.43;10.37;;;;;;;;;;5099055;28;20449;-70
2023/01/26 04:53:50;;;;;;;18.00;10.57;;;;;;;;;;5098707;28;20832;-69
2023/01/26 04:56:22;;;;;;;17.67;10.53;;;;;;;;;;5098454;28;21010;-69
2023/01/26 04:58:50;;;;;;;19.33;10.93;;;;;;;;;;5098760;28;20943;-70
2023/01/26 05:01:18;;;;;;;21.47;10.93;;;;;;;;;;5098677;28;20439;-69
2023/01/26 05:03:46;;;;;;;20.63;10.50;;;;;;;;;;5098522;28;20826;-69
2023/01/26 05:06:15;;;;;;;20.17;10.20;;;;;;;;;;5098750;28;20443;-69
2023/01/26 05:08:43;;;;;;;17.33;10.17;;;;;;;;;;5098605;28;20483;-69
2023/01/26 05:11:11;;;;;;;17.97;10.23;;;;;;;;;;5098175;28;20440;-70
2023/01/26 05:13:40;;;;;;;17.00;10.80;;;;;;;;;;5098576;28;20555;-69
2023/01/26 05:16:12;;;;;;;19.53;10.17;;;;;;;;;;5098674;28;20497;-70
2023/01/26 05:18:40;;;;;;;17.37;9.87;;;;;;;;;;5098641;28;20489;-69
2023/01/26 05:21:09;;;;;;;18.57;10.37;;;;;;;;;;5098240;28;20530;-70
2023/01/26 05:23:37;;;;;;;17.23;10.17;;;;;;;;;;5098265;28;20821;-70
2023/01/26 05:26:05;;;;;;;15.03;8.67;;;;;;;;;;5098205;28;20451;-69
2023/01/26 05:28:34;;;;;;;18.60;9.53;;;;;;;;;;5098409;28;20483;-69
2023/01/26 05:31:03;;;;;;;19.30;10.40;;;;;;;;;;5098360;28;20443;-69
2023/01/26 05:33:31;;;;;;;14.80;8.93;;;;;;;;;;5098270;28;20502;-69
2023/01/26 05:36:03;;;;;;;18.60;9.80;;;;;;;;;;5097860;28;20499;-69
2023/01/26 05:38:31;;;;;;;17.63;9.17;;;;;;;;;;5098075;28;20852;-70
2023/01/26 05:40:59;;;;;;;15.50;9.00;;;;;;;;;;5098023;28;20522;-69
2023/01/26 05:43:27;;;;;;;19.00;10.17;;;;;;;;;;5098116;28;20471;-70
2023/01/26 05:45:55;;;;;;;18.63;10.87;;;;;;;;;;5098187;28;20445;-70
2023/01/26 05:48:25;;;;;;;16.23;9.50;;;;;;;;;;5097964;28;20479;-70
2023/01/26 05:50:55;;;;;;;18.33;11.33;;;;;;;;;;5097653;28;20913;-70
2023/01/26 05:53:23;;;;;;;19.53;10.63;;;;;;;;;;5097804;28;20464;-70
2023/01/26 05:55:51;;;;;;;19.80;11.10;;;;;;;;;;5097866;28;20440;-70
2023/01/26 05:58:19;;;;;;;19.67;10.50;;;;;;;;;;5098041;28;20444;-70
2023/01/26 06:00:47;;;;;;;19.63;10.67;;;;;;;;;;5097149;28;20807;-70
2023/01/26 06:03:15;;;;;;;18.93;10.47;;;;;;;;;;5097664;28;20570;-70
2023/01/26 06:05:52;;;;;;;20.30;10.47;;;;;;;;;;5097561;28;20470;-69
2023/01/26 06:08:20;;;;;;;20.20;10.53;;;;;;;;;;5097620;28;21043;-69
2023/01/26 06:10:48;;;;;;;16.17;9.03;;;;;;;;;;5097284;28;20481;-69
2023/01/26 06:13:16;;;;;;;19.47;10.60;;;;;;;;;;5097298;28;20970;-69
2023/01/26 06:15:44;;;;;;;18.07;9.63;;;;;;;;;;5097429;28;20448;-70
2023/01/26 06:18:12;;;;;;;21.37;10.67;;;;;;;;;;5097638;28;20478;-69
2023/01/26 06:20:40;;;;;;;13.47;8.53;;;;;;;;;;5097511;28;20439;-69
2023/01/26 06:23:12;;;;;;;18.03;10.47;;;;;;;;;;5097566;28;20467;-69
2023/01/26 06:25:40;;;;;;;20.93;9.43;;;;;;;;;;5097419;28;20443;-69
2023/01/26 06:28:08;;;;;;;17.40;9.87;;;;;;;;;;5097270;28;21001;-69
2023/01/26 06:30:36;;;;;;;18.13;9.80;;;;;;;;;;5097235;28;20443;-69
2023/01/26 06:33:05;;;;;;;18.17;9.53;;;;;;;;;;5097157;28;20513;-70
2023/01/26 06:35:34;;;;;;;16.17;9.83;;;;;;;;;;5097057;28;20471;-69
2023/01/26 06:38:03;;;;;;;18.80;10.00;;;;;;;;;;5097467;28;20444;-70
2023/01/26 06:40:34;;;;;;;24.27;12.90;;;;;;;;;;5096935;28;20440;-69
2023/01/26 06:43:02;;;;;;;19.70;9.80;;;;;;;;;;5097025;28;20471;-69
2023/01/26 06:45:30;;;;;;;16.27;10.03;;;;;;;;;;5097299;28;20439;-70
2023/01/26 06:47:58;;;;;;;19.47;10.07;;;;;;;;;;5097000;28;20479;-69
2023/01/26 06:50:31;;;;;;;17.97;9.67;;;;;;;;;;5097197;28;20447;-69
2023/01/26 06:53:03;;;;;;;14.97;9.50;;;;;;;;;;5097287;28;20497;-69
2023/01/26 06:55:36;;;;;;;17.30;9.90;;;;;;;;;;5096911;28;20519;-69
2023/01/26 06:58:07;;;;;;;18.87;10.37;;;;;;;;;;5096942;28;20893;-69
2023/01/26 07:00:35;;;;;;;16.17;9.03;;;;;;;;;;5097214;28;20439;-69
2023/01/26 07:03:03;;;;;;;18.50;10.67;;;;;;;;;;5096924;28;20463;-69
2023/01/26 07:05:31;;;;;;;20.67;9.70;;;;;;;;;;5096867;28;20466;-70
2023/01/26 07:08:01;;;;;;;16.43;8.90;;;;;;;;;;5096198;28;20497;-69
2023/01/26 07:10:29;;;;;;;17.33;9.87;;;;;;;;;;5096707;28;20440;-69
2023/01/26 07:12:58;;;;;;;21.60;9.80;;;;;;;;;;5099583;28;20463;-69
2023/01/26 07:15:26;;;;;;;19.00;10.90;;;;;;;;;;5100873;28;20443;-70
2023/01/26 07:17:54;;;;;;;16.97;9.63;;;;;;;;;;5100553;28;20447;-69
2023/01/26 07:20:23;;;;;;;19.30;11.37;;;;;;;;;;5100304;28;20440;-70
2023/01/26 07:22:51;;;;;;;16.23;10.27;;;;;;;;;;5100448;28;20499;-70
2023/01/26 07:25:19;;;;;;;16.70;10.30;;;;;;;;;;5090156;28;20510;-69
2023/01/26 07:27:47;;;;;;;18.30;10.70;;;;;;;;;;5093667;28;20454;-70
2023/01/26 07:30:17;;;;;;;21.03;10.63;;;;;;;;;;5099981;28;20847;-70
2023/01/26 07:32:45;;;;;;;24.63;14.20;;;;;;;;;;5099980;28;20459;-70
2023/01/26 07:35:13;;;;;;;15.97;9.37;;;;;;;;;;5099611;28;20475;-69
2023/01/26 07:37:41;;;;;;;20.70;10.37;;;;;;;;;;5099951;28;20472;-70
2023/01/26 07:40:09;;;;;;;16.33;10.07;;;;;;;;;;5099340;28;20471;-69
2023/01/26 07:42:38;;;;;;;15.80;9.67;;;;;;;;;;5098054;28;20966;-69
2023/01/26 07:45:07;;;;;;;17.40;9.27;;;;;;;;;;5098290;28;20444;-69
2023/01/26 07:47:37;;;;;;;14.03;9.50;;;;;;;;;;5093220;28;20436;-69
2023/01/26 07:50:06;;;;;;;17.70;9.93;;;;;;;;;;5097992;28;20489;-69
2023/01/26 07:52:34;;;;;;;17.93;10.47;;;;;;;;;;5098199;28;20512;-69
2023/01/26 07:55:02;;;;;;;18.33;8.83;;;;;;;;;;5098179;28;20440;-69
2023/01/26 07:57:30;;;;;;;14.60;9.53;;;;;;;;;;5097692;28;20440;-69
2023/01/26 07:59:58;;;;;;;13.00;8.93;;;;;;;;;;5097823;28;20450;-69
2023/01/26 08:02:26;;;;;;;14.07;8.03;;;;;;;;;;5097970;28;20515;-69
2023/01/26 08:04:56;;;;;;;13.73;8.00;;;;;;;;;;5097520;28;20475;-69
2023/01/26 08:07:24;;;;;;;16.53;8.20;;;;;;;;;;5097900;28;20482;-69
2023/01/26 08:09:52;;;;;;;14.53;9.23;;;;;;;;;;5097330;28;20556;-69
2023/01/26 08:12:20;;;;;;;13.37;8.13;;;;;;;;;;5099472;28;20443;-69
2023/01/26 08:14:48;;;;;;;13.43;7.43;;;;;;;;;;5099415;28;20453;-69
2023/01/26 08:17:17;;;;;;;12.23;8.03;;;;;;;;;;5099651;28;20498;-69
2023/01/26 08:19:45;;;;;;;10.20;7.20;;;;;;;;;;5099405;28;20526;-69
2023/01/26 08:22:15;;;;;;;16.53;9.80;;;;;;;;;;5099047;28;20445;-69
2023/01/26 08:24:43;;;;;;;11.40;7.97;;;;;;;;;;5098786;28;20988;-69
2023/01/26 08:27:11;;;;;;;13.83;7.97;;;;;;;;;;5099395;28;20444;-69
2023/01/26 08:29:39;;;;;;;10.43;6.53;;;;;;;;;;5099262;28;20494;-69
2023/01/26 08:32:09;;;;;;;14.10;6.77;;;;;;;;;;5099303;28;20443;-69
2023/01/26 08:34:37;;;;;;;12.10;6.47;;;;;;;;;;5098704;28;20515;-69
2023/01/26 08:37:07;;;;;;;9.33;6.43;;;;;;;;;;5099295;28;20511;-69
2023/01/26 08:39:37;;;;;;;12.63;6.80;;;;;;;;;;5098669;28;20884;-69
2023/01/26 08:42:05;;;;;;;10.90;6.47;;;;;;;;;;5098845;28;20435;-69
2023/01/26 08:44:33;;;;;;;10.57;6.63;;;;;;;;;;5098772;28;20459;-69
2023/01/26 08:47:01;;;;;;;8.53;6.03;;;;;;;;;;5094044;28;20455;-69
2023/01/26 08:49:29;;;;;;;10.17;5.83;;;;;;;;;;5097507;28;20490;-68
2023/01/26 08:51:57;;;;;;;11.07;7.00;;;;;;;;;;5098834;28;20946;-69
2023/01/26 08:54:25;;;;;;;13.33;6.50;;;;;;;;;;5098482;28;20513;-69
2023/01/26 08:56:55;;;;;;;11.43;6.27;;;;;;;;;;5098985;28;20443;-69
2023/01/26 08:59:23;;;;;;;12.00;6.47;;;;;;;;;;5098570;28;20482;-68
2023/01/26 09:01:51;;;;;;;9.17;6.43;;;;;;;;;;5098458;28;20946;-69
2023/01/26 09:04:19;;;;;;;10.77;6.17;;;;;;;;;;5098573;28;20521;-68
2023/01/26 09:06:47;;;;;;;12.57;7.00;;;;;;;;;;5098400;28;20448;-69
2023/01/26 09:09:15;;;;;;;11.87;6.20;;;;;;;;;;5098582;28;20562;-69
2023/01/26 09:11:43;;;;;;;13.50;7.40;;;;;;;;;;5098315;28;20493;-69
2023/01/26 09:14:12;;;;;;;12.03;7.27;;;;;;;;;;5098489;28;20465;-69
2023/01/26 09:16:40;;;;;;;10.43;6.23;;;;;;;;;;5098520;28;20530;-69
2023/01/26 09:19:08;;;;;;;12.20;7.13;;;;;;;;;;5098283;28;20875;-69
2023/01/26 09:21:36;;;;;;;12.20;6.77;;;;;;;;;;5098469;28;20497;-68
2023/01/26 09:24:05;;;;;;;12.17;7.10;;;;;;;;;;5098055;28;20528;-68
2023/01/26 09:26:33;;;;;;;10.63;6.33;;;;;;;;;;5097717;28;20447;-68
2023/01/26 09:29:01;;;;;;;11.77;6.40;;;;;;;;;;5098272;28;20443;-68
2023/01/26 09:31:30;;;;;;;11.77;6.70;;;;;;;;;;5097831;28;20918;-69
2023/01/26 09:33:58;;;;;;;11.13;6.87;;;;;;;;;;5097419;28;20839;-69
2023/01/26 09:36:26;;;;;;;12.10;6.27;;;;;;;;;;5097462;28;20477;-68
2023/01/26 09:38:54;;;;;;;11.77;6.43;;;;;;;;;;5098224;28;20446;-69
2023/01/26 09:41:35;;;;;;;11.23;6.60;;;;;;;;;;5097630;28;20443;-68
2023/01/26 09:44:05;;;;;;;11.90;6.80;;;;;;;;;;5098202;28;20466;-69
2023/01/26 09:46:40;;;;;;;11.23;7.37;;;;;;;;;;5097080;28;20472;-69
2023/01/26 09:49:10;;;;;;;11.73;6.70;;;;;;;;;;5093527;28;20442;-69
2023/01/26 09:51:39;;;;;;;10.97;6.63;;;;;;;;;;5097746;28;20532;-69
2023/01/26 09:54:15;;;;;;;11.77;7.07;;;;;;;;;;5097699;28;20817;-68
2023/01/26 09:56:44;;;;;;;10.73;6.77;;;;;;;;;;5097779;28;20926;-68
2023/01/26 09:59:17;;;;;;;14.20;6.30;;;;;;;;;;5098169;28;20443;-69
2023/01/26 10:01:51;;;;;;;12.23;6.70;;;;;;;;;;5097881;28;21002;-69
2023/01/26 10:04:28;;;;;;;12.63;7.17;;;;;;;;;;5097665;28;20546;-69
2023/01/26 10:06:57;;;;;;;11.93;6.43;;;;;;;;;;5098032;28;20449;-68
2023/01/26 10:09:28;;;;;;;13.63;8.13;;;;;;;;;;5097432;28;20439;-69
2023/01/26 10:11:58;;;;;;;12.83;7.57;;;;;;;;;;5098006;28;20442;-69
2023/01/26 10:14:31;;;;;;;13.97;8.07;;;;;;;;;;5097901;28;20474;-69
2023/01/26 10:17:01;;;;;;;10.83;6.60;;;;;;;;;;5098071;28;20442;-69
2023/01/26 10:19:33;;;;;;;13.40;6.53;;;;;;;;;;5097936;28;20454;-69
2023/01/26 10:22:05;;;;;;;9.63;6.70;;;;;;;;;;5097809;28;20450;-69
2023/01/26 10:24:33;;;;;;;12.07;7.07;;;;;;;;;;5097083;28;20471;-69
2023/01/26 10:27:01;;;;;;;10.60;6.23;;;;;;;;;;5097551;28;20809;-68
2023/01/26 10:29:29;;;;;;;10.77;6.13;;;;;;;;;;5097651;28;20475;-68
2023/01/26 10:31:57;;;;;;;13.07;6.60;;;;;;;;;;5097447;28;20555;-68
2023/01/26 10:34:27;;;;;;;14.30;7.77;;;;;;;;;;5097293;28;20554;-69
2023/01/26 10:36:59;;;;;;;11.30;7.10;;;;;;;;;;5097488;28;20951;-69
2023/01/26 10:39:26;;;;;;;11.83;7.63;;;;;;;;;;5097284;28;20447;-69
2023/01/26 10:41:59;;;;;;;14.23;7.33;;;;;;;;;;5097556;28;20523;-70
2023/01/26 10:44:31;;;;;;;10.07;6.90;;;;;;;;;;5097400;28;20459;-69
2023/01/26 10:47:04;;;;;;;13.07;6.43;;;;;;;;;;5095477;28;20452;-69
2023/01/26 10:49:33;;;;;;;8.00;5.73;;;;;;;;;;5099990;28;20443;-69
2023/01/26 10:52:06;;;;;;;13.47;7.37;;;;;;;;;;5100998;28;20479;-69
2023/01/26 10:54:35;;;;;;;10.83;6.63;;;;;;;;;;5100638;28;20467;-69
2023/01/26 10:57:06;;;;;;;11.30;6.90;;;;;;;;;;5100895;28;20451;-69
2023/01/26 10:59:34;;;;;;;12.00;6.93;;;;;;;;;;5101027;28;20812;-69
2023/01/26 11:02:17;;;;;;;10.80;6.73;;;;;;;;;;5101196;28;20439;-69
2023/01/26 11:05:01;;;;;;;14.43;7.83;;;;;;;;;;5101119;28;20500;-69
2023/01/26 11:07:32;;;;;;;13.13;7.27;;;;;;;;;;5101147;28;20443;-69
2023/01/26 11:10:16;;;;;;;10.53;6.63;;;;;;;;;;5100849;28;20454;-69
2023/01/26 11:12:44;;;;;;;10.97;6.67;;;;;;;;;;5100989;28;20463;-68
2023/01/26 11:15:16;;;;;;;12.87;6.90;;;;;;;;;;5100966;28;20447;-68
2023/01/26 11:17:48;;;;;;;12.33;7.27;;;;;;;;;;5101273;28;20448;-68
2023/01/26 11:20:39;;;;;;;10.93;6.67;;;;;;;;;;5100803;28;20447;-69
2023/01/26 11:23:11;;;;;;;10.47;5.97;;;;;;;;;;5100487;28;20463;-69
2023/01/26 11:25:42;;;;;;;10.23;6.30;;;;;;;;;;5100585;28;20436;-69
2023/01/26 11:28:31;;;;;;;10.33;5.80;;;;;;;;;;5100734;28;20471;-69
2023/01/26 11:31:08;;;;;;;8.27;5.77;;;;;;;;;;5085095;28;20925;-69
2023/01/26 11:33:39;;;;;;;9.63;6.00;;;;;;;;;;5098965;28;20463;-68
2023/01/26 11:36:12;;;;;;;10.80;6.20;;;;;;;;;;5099171;28;20808;-69
2023/01/26 11:38:41;;;;;;;10.37;6.70;;;;;;;;;;5099969;28;20973;-70
2023/01/26 11:41:17;;;;;;;10.70;6.57;;;;;;;;;;5099970;28;20440;-69
2023/01/26 11:44:04;;;;;;;12.20;6.30;;;;;;;;;;5100342;28;20483;-70
2023/01/26 11:46:45;;;;;;;10.53;5.23;;;;;;;;;;5099126;28;20530;-69
2023/01/26 11:49:21;;;;;;;11.33;6.27;;;;;;;;;;5096544;28;20522;-69
2023/01/26 11:51:57;;;;;;;8.90;5.83;;;;;;;;;;5099602;28;21009;-69
2023/01/26 11:54:40;;;;;;;8.40;5.77;;;;;;;;;;5098082;28;20834;-69
2023/01/26 11:57:14;;;;;;;10.07;5.73;;;;;;;;;;5099682;28;20447;-69
2023/01/26 11:59:44;;;;;;;11.07;6.23;;;;;;;;;;5099661;28;20446;-69
2023/01/26 12:02:21;;;;;;;10.77;6.27;;;;;;;;;;5098117;28;20447;-69
2023/01/26 12:04:54;;;;;;;12.13;6.77;;;;;;;;;;5097824;28;20469;-69
2023/01/26 12:07:27;;;;;;;10.13;6.50;;;;;;;;;;5097772;28;20939;-69
2023/01/26 12:09:55;;;;;;;8.80;5.10;;;;;;;;;;5097675;28;20435;-69
2023/01/26 12:12:27;;;;;;;8.23;5.53;;;;;;;;;;5097531;28;20507;-69
2023/01/26 12:14:57;;;;;;;8.77;5.80;;;;;;;;;;5098468;28;20531;-68
2023/01/26 12:17:30;;;;;;;7.97;5.50;;;;;;;;;;5099593;28;20447;-69
2023/01/26 12:20:03;;;;;;;11.97;6.37;;;;;;;;;;5099299;28;20443;-69
2023/01/26 12:22:35;;;;;;;8.57;5.57;;;;;;;;;;5099735;28;20471;-69
2023/01/26 12:25:07;;;;;;;9.07;5.50;;;;;;;;;;5099246;28;20491;-69
2023/01/26 12:27:58;;;;;;;8.83;5.40;;;;;;;;;;5099506;28;20451;-69
2023/01/26 12:30:31;;;;;;;10.00;5.80;;;;;;;;;;5099642;28;20471;-68
2023/01/26 12:32:59;;;;;;;9.73;6.13;;;;;;;;;;5099284;28;20483;-69
2023/01/26 12:35:34;;;;;;;8.23;5.00;;;;;;;;;;5098949;28;20494;-68
2023/01/26 12:38:05;;;;;;;7.43;4.70;;;;;;;;;;5099110;28;20529;-68
2023/01/26 12:40:49;;;;;;;11.57;5.17;;;;;;;;;;5098784;28;20458;-68
2023/01/26 12:43:23;;;;;;;5.90;4.43;;;;;;;;;;5098961;28;20459;-68
2023/01/26 12:45:54;;;;;;;8.63;4.80;;;;;;;;;;5098958;28;20475;-68
2023/01/26 12:48:24;;;;;;;7.20;5.30;;;;;;;;;;5093583;28;20479;-68
2023/01/26 12:50:54;;;;;;;11.13;6.13;;;;;;;;;;5098980;28;20444;-68
2023/01/26 12:53:29;;;;;;;6.27;4.87;;;;;;;;;;5099000;28;20463;-68
2023/01/26 12:56:03;;;;;;;9.60;6.07;;;;;;;;;;5098541;28;20479;-68
2023/01/26 12:58:32;;;;;;;8.20;5.10;;;;;;;;;;5098952;28;20443;-68
2023/01/26 13:01:02;;;;;;;7.93;4.80;;;;;;;;;;5098760;28;20505;-68
2023/01/26 13:03:31;;;;;;;8.63;5.67;;;;;;;;;;5098749;28;20459;-68
2023/01/26 13:06:00;;;;;;;7.80;4.33;;;;;;;;;;5098492;28;20443;-69
2023/01/26 13:08:41;;;;;;;8.93;5.53;;;;;;;;;;5098510;28;20946;-68
2023/01/26 13:11:09;;;;;;;11.53;6.10;;;;;;;;;;5098236;28;20923;-68
2023/01/26 13:13:53;;;;;;;8.57;5.23;;;;;;;;;;5098714;28;20469;-68
2023/01/26 13:16:33;;;;;;;7.97;4.87;;;;;;;;;;5098476;28;20953;-69
2023/01/26 13:19:02;;;;;;;7.57;4.63;;;;;;;;;;5098278;28;20473;-68
2023/01/26 13:21:42;;;;;;;13.50;5.47;;;;;;;;;;5098501;28;20443;-69
2023/01/26 13:24:28;;;;;;;9.33;6.03;;;;;;;;;;5098519;28;20467;-68
2023/01/26 13:26:58;;;;;;;6.33;4.87;;;;;;;;;;5085060;28;20461;-68
2023/01/26 13:29:28;;;;;;;11.57;4.77;;;;;;;;;;5098199;28;20935;-68
2023/01/26 13:31:56;;;;;;;10.20;5.20;;;;;;;;;;5098167;28;20483;-69
2023/01/26 13:34:27;;;;;;;7.20;4.83;;;;;;;;;;5094068;28;20884;-68
2023/01/26 13:36:56;;;;;;;10.00;5.60;;;;;;;;;;5097942;28;20466;-69
2023/01/26 13:39:31;;;;;;;6.93;5.13;;;;;;;;;;5097681;28;20436;-69
2023/01/26 13:42:00;;;;;;;6.83;5.77;;;;;;;;;;5098011;28;20432;-68
2023/01/26 13:44:34;;;;;;;8.23;4.30;;;;;;;;;;5097757;28;20485;-69
2023/01/26 13:47:06;;;;;;;6.57;4.37;;;;;;;;;;5093273;28;20456;-68
2023/01/26 13:49:37;;;;;;;9.07;4.60;;;;;;;;;;5096805;28;20806;-68
2023/01/26 13:52:14;;;;;;;6.97;4.07;;;;;;;;;;5098019;28;20562;-68
2023/01/26 13:54:43;;;;;;;8.07;4.40;;;;;;;;;;5097696;28;20459;-68
2023/01/26 13:57:19;;;;;;;7.93;4.67;;;;;;;;;;5097602;28;20546;-68
2023/01/26 13:59:48;;;;;;;6.93;4.00;;;;;;;;;;5097714;28;20466;-68
2023/01/26 14:02:24;;;;;;;6.73;4.57;;;;;;;;;;5097613;28;20520;-68
2023/01/26 14:04:54;;;;;;;6.03;4.07;;;;;;;;;;5097706;28;20447;-68
2023/01/26 14:07:24;;;;;;;8.73;4.80;;;;;;;;;;5097647;28;20439;-68
2023/01/26 14:09:53;;;;;;;5.67;4.60;;;;;;;;;;5097547;28;20443;-68
2023/01/26 14:12:24;;;;;;;6.23;4.43;;;;;;;;;;5097469;28;20838;-68
2023/01/26 14:14:53;;;;;;;6.97;4.37;;;;;;;;;;5097666;28;20444;-68
2023/01/26 14:17:28;;;;;;;6.77;4.57;;;;;;;;;;5097681;28;20496;-68
2023/01/26 14:19:57;;;;;;;10.20;4.70;;;;;;;;;;5097724;28;20450;-68
2023/01/26 14:22:25;;;;;;;10.27;4.70;;;;;;;;;;5101272;28;20501;-68
2023/01/26 14:24:53;;;;;;;8.37;4.77;;;;;;;;;;5101739;28;20432;-69
2023/01/26 14:27:28;;;;;;;9.57;4.33;;;;;;;;;;5101712;28;20479;-68
2023/01/26 14:29:56;;;;;;;8.40;4.77;;;;;;;;;;5101732;28;20898;-69
2023/01/26 14:32:24;;;;;;;7.20;4.90;;;;;;;;;;5101509;28;20518;-69
2023/01/26 14:34:53;;;;;;;5.40;4.23;;;;;;;;;;5101324;28;20832;-69
2023/01/26 14:37:21;;;;;;;7.87;4.77;;;;;;;;;;5101770;28;20512;-69
2023/01/26 14:39:49;;;;;;;7.60;5.63;;;;;;;;;;5101261;28;20509;-69
2023/01/26 14:42:18;;;;;;;6.37;4.63;;;;;;;;;;5101701;28;20442;-69
2023/01/26 14:44:48;;;;;;;9.17;5.30;;;;;;;;;;5101383;28;20475;-69
2023/01/26 14:47:18;;;;;;;5.27;4.23;;;;;;;;;;5094692;28;20486;-70
2023/01/26 14:49:48;;;;;;;8.27;4.83;;;;;;;;;;5101655;28;20440;-69
2023/01/26 14:52:18;;;;;;;7.13;4.23;;;;;;;;;;5101454;28;20447;-69
2023/01/26 14:54:46;;;;;;;8.17;4.33;;;;;;;;;;5100892;28;20870;-69
2023/01/26 14:57:17;;;;;;;6.63;4.10;;;;;;;;;;5101108;28;20954;-70
2023/01/26 14:59:49;;;;;;;6.63;3.20;;;;;;;;;;5101001;28;20452;-69
2023/01/26 15:02:18;;;;;;;5.70;3.90;;;;;;;;;;5100979;28;20447;-69
2023/01/26 15:04:47;;;;;;;6.47;4.53;;;;;;;;;;5100888;28;20451;-69
2023/01/26 15:07:33;;;;;;;5.80;3.63;;;;;;;;;;5101205;28;20449;-69
2023/01/26 15:10:01;;;;;;;6.97;4.10;;;;;;;;;;5100684;28;20470;-69
2023/01/26 15:12:33;;;;;;;6.37;4.07;;;;;;;;;;5100909;28;20494;-69
2023/01/26 15:15:02;;;;;;;5.13;3.67;;;;;;;;;;5101372;28;20471;-69
2023/01/26 15:17:36;;;;;;;7.53;4.73;;;;;;;;;;5101031;28;20443;-69
2023/01/26 15:20:10;;;;;;;5.23;3.83;;;;;;;;;;5100743;28;20493;-69
2023/01/26 15:22:39;;;;;;;5.70;3.70;;;;;;;;;;5100575;28;20462;-69
2023/01/26 15:25:17;;;;;;;4.13;3.50;;;;;;;;;;5100252;28;20522;-69
2023/01/26 15:27:49;;;;;;;8.60;3.80;;;;;;;;;;5100471;28;20518;-69
2023/01/26 15:30:22;;;;;;;6.33;4.53;;;;;;;;;;5100484;28;20444;-69
2023/01/26 15:32:50;;;;;;;5.10;3.80;;;;;;;;;;5084214;28;20511;-69
2023/01/26 15:35:19;;;;;;;5.90;4.97;;;;;;;;;;5086042;28;20514;-69
2023/01/26 15:37:48;;;;;;;5.00;3.57;;;;;;;;;;5100847;28;20469;-69
2023/01/26 15:40:16;;;;;;;5.57;4.10;;;;;;;;;;5099917;28;20478;-69